Time;durP1;ratioP1;P1;durP2;ratioP2;P2;SDS_P1;SDS_P2;PMS_P1;PMS_P2;Temp;Humidity;BMP_temperature;BMP_pressure;BME280_temperature;BME280_humidity;BME280_pressure;Samples;Min_cycle;Max_cycle;Signal;HPM_P1;HPM_P2
2023/01/23 00:01:13;;;;;;;149.80;28.33;;;;;;;;;;5015551;28;20201;-47
2023/01/23 00:03:40;;;;;;;167.60;29.33;;;;;;;;;;5015277;28;20204;-48
2023/01/23 00:06:12;;;;;;;126.50;27.57;;;;;;;;;;5015373;28;20220;-47
2023/01/23 00:08:40;;;;;;;153.23;28.27;;;;;;;;;;5015721;28;20205;-46
2023/01/23 00:11:09;;;;;;;139.00;26.17;;;;;;;;;;5015218;28;20637;-46
2023/01/23 00:13:37;;;;;;;168.50;28.70;;;;;;;;;;5015635;28;20213;-46
2023/01/23 00:16:09;;;;;;;133.77;26.93;;;;;;;;;;5015222;28;20201;-46
2023/01/23 00:18:37;;;;;;;129.07;25.37;;;;;;;;;;5015065;28;20693;-47
2023/01/23 00:21:06;;;;;;;135.73;26.53;;;;;;;;;;5015244;28;20205;-46
2023/01/23 00:23:33;;;;;;;133.37;26.10;;;;;;;;;;5015834;28;20206;-46
2023/01/23 00:26:02;;;;;;;141.90;25.03;;;;;;;;;;5015043;28;20649;-46
2023/01/23 00:28:30;;;;;;;130.77;25.13;;;;;;;;;;5015207;28;20197;-46
2023/01/23 00:31:11;;;;;;;123.47;24.20;;;;;;;;;;5014886;28;20634;-47
2023/01/23 00:33:39;;;;;;;135.17;23.80;;;;;;;;;;5014631;28;20599;-46
2023/01/23 00:36:07;;;;;;;134.43;25.57;;;;;;;;;;5015245;28;20256;-46
2023/01/23 00:38:34;;;;;;;141.77;24.97;;;;;;;;;;5014820;28;20201;-47
2023/01/23 00:41:02;;;;;;;132.27;24.47;;;;;;;;;;5013690;28;20725;-50
2023/01/23 00:43:31;;;;;;;131.13;25.43;;;;;;;;;;5015090;28;20221;-49
2023/01/23 00:45:59;;;;;;;139.77;25.07;;;;;;;;;;5014995;28;20530;-51
2023/01/23 00:48:26;;;;;;;156.73;28.13;;;;;;;;;;5014732;28;20622;-46
2023/01/23 00:50:53;;;;;;;150.07;26.27;;;;;;;;;;5014811;28;20242;-46
2023/01/23 00:53:21;;;;;;;158.43;27.27;;;;;;;;;;5014939;28;20229;-46
2023/01/23 00:55:48;;;;;;;129.47;25.30;;;;;;;;;;5014252;28;20527;-47
2023/01/23 00:58:15;;;;;;;161.70;27.47;;;;;;;;;;5017678;28;20202;-46
2023/01/23 01:00:43;;;;;;;152.73;27.63;;;;;;;;;;5018526;28;20239;-46
2023/01/23 01:03:10;;;;;;;154.10;27.23;;;;;;;;;;5017547;28;20253;-47
2023/01/23 01:05:37;;;;;;;148.80;25.57;;;;;;;;;;5018750;28;20217;-46
2023/01/23 01:08:04;;;;;;;146.63;24.63;;;;;;;;;;5017780;28;20212;-46
2023/01/23 01:10:32;;;;;;;118.97;23.80;;;;;;;;;;5017937;28;20209;-46
2023/01/23 01:13:01;;;;;;;141.17;24.30;;;;;;;;;;5018297;28;20224;-46
2023/01/23 01:15:29;;;;;;;156.63;26.00;;;;;;;;;;5018286;28;20224;-46
2023/01/23 01:17:58;;;;;;;128.53;24.33;;;;;;;;;;5018227;28;20205;-46
2023/01/23 01:20:26;;;;;;;154.90;24.87;;;;;;;;;;5018821;28;20565;-48
2023/01/23 01:22:56;;;;;;;133.73;23.53;;;;;;;;;;5017423;28;20201;-46
2023/01/23 01:25:24;;;;;;;159.57;25.43;;;;;;;;;;5018030;28;20211;-46
2023/01/23 01:27:54;;;;;;;122.20;22.37;;;;;;;;;;5018314;28;20267;-46
2023/01/23 01:30:24;;;;;;;144.53;24.07;;;;;;;;;;5017433;28;20213;-46
2023/01/23 01:32:52;;;;;;;168.83;24.03;;;;;;;;;;5018083;28;20233;-45
2023/01/23 01:35:20;;;;;;;171.53;25.23;;;;;;;;;;5017093;28;20213;-49
2023/01/23 01:37:47;;;;;;;137.70;23.73;;;;;;;;;;5017022;28;20201;-46
2023/01/23 01:40:21;;;;;;;153.63;23.83;;;;;;;;;;5016888;28;20252;-46
2023/01/23 01:43:00;;;;;;;137.70;23.20;;;;;;;;;;5017875;28;20219;-47
2023/01/23 01:46:05;;;;;;;149.17;23.27;;;;;;;;;;5017202;28;20213;-48
2023/01/23 01:48:44;;;;;;;154.87;22.80;;;;;;;;;;5017007;28;20240;-47
2023/01/23 01:51:37;;;;;;;147.40;24.30;;;;;;;;;;5017151;28;20248;-46
2023/01/23 01:54:19;;;;;;;139.77;24.50;;;;;;;;;;5033253;28;20209;-46
2023/01/23 01:56:52;;;;;;;156.47;23.70;;;;;;;;;;5017644;28;20205;-46
2023/01/23 01:59:21;;;;;;;178.50;25.97;;;;;;;;;;5016811;28;20647;-46
2023/01/23 02:01:53;;;;;;;199.40;26.00;;;;;;;;;;5016664;28;20197;-46
2023/01/23 02:04:20;;;;;;;154.20;24.17;;;;;;;;;;5016640;28;20201;-46
2023/01/23 02:06:49;;;;;;;203.20;25.60;;;;;;;;;;5017189;28;20201;-46
2023/01/23 02:09:24;;;;;;;151.53;24.63;;;;;;;;;;5033093;28;20206;-46
2023/01/23 02:11:53;;;;;;;190.10;25.97;;;;;;;;;;5017027;28;20205;-47
2023/01/23 02:14:23;;;;;;;168.20;26.97;;;;;;;;;;5017062;28;20205;-46
2023/01/23 02:16:51;;;;;;;187.40;25.93;;;;;;;;;;5033340;28;20232;-47
2023/01/23 02:19:28;;;;;;;203.17;25.07;;;;;;;;;;5017019;28;20213;-46
2023/01/23 02:22:08;;;;;;;216.90;26.60;;;;;;;;;;5016697;28;20216;-47
2023/01/23 02:24:39;;;;;;;163.77;24.47;;;;;;;;;;5016543;28;20264;-46
2023/01/23 02:27:07;;;;;;;204.07;24.50;;;;;;;;;;5016388;28;20213;-46
2023/01/23 02:29:42;;;;;;;188.37;24.23;;;;;;;;;;5017084;28;20201;-47
2023/01/23 02:32:09;;;;;;;231.43;26.53;;;;;;;;;;5016988;28;20224;-46
2023/01/23 02:34:37;;;;;;;159.60;24.50;;;;;;;;;;5015905;28;20646;-46
2023/01/23 02:37:05;;;;;;;167.37;24.93;;;;;;;;;;5016641;28;20283;-46
2023/01/23 02:39:32;;;;;;;222.67;26.23;;;;;;;;;;5015789;28;20209;-46
2023/01/23 02:42:01;;;;;;;168.33;25.30;;;;;;;;;;5016175;28;20515;-46
2023/01/23 02:44:41;;;;;;;219.20;25.30;;;;;;;;;;5015830;28;20205;-46
2023/01/23 02:47:11;;;;;;;160.83;25.20;;;;;;;;;;5015700;28;20205;-48
2023/01/23 02:49:39;;;;;;;196.20;26.03;;;;;;;;;;5016019;28;20300;-45
2023/01/23 02:52:08;;;;;;;215.17;26.53;;;;;;;;;;5000064;28;20202;-46
2023/01/23 02:54:36;;;;;;;252.93;28.73;;;;;;;;;;5015870;28;20201;-47
2023/01/23 02:57:03;;;;;;;317.53;29.43;;;;;;;;;;5015743;28;20221;-46
2023/01/23 03:02:17;;;;;;;246.13;27.20;;;;;;;;;;5015485;28;20205;-47
2023/01/23 03:04:46;;;;;;;235.57;26.27;;;;;;;;;;5015942;28;20209;-46
2023/01/23 03:07:14;;;;;;;182.07;25.13;;;;;;;;;;5015610;28;20201;-45
2023/01/23 03:09:45;;;;;;;169.83;25.03;;;;;;;;;;5016248;28;20271;-46
2023/01/23 03:12:14;;;;;;;200.50;26.00;;;;;;;;;;5015891;28;20213;-46
2023/01/23 03:14:41;;;;;;;168.47;27.13;;;;;;;;;;5015216;28;20645;-46
2023/01/23 03:17:09;;;;;;;205.30;26.87;;;;;;;;;;5015270;28;20263;-47
2023/01/23 03:19:37;;;;;;;169.67;26.50;;;;;;;;;;5014587;28;20267;-46
2023/01/23 03:22:06;;;;;;;222.67;26.27;;;;;;;;;;5015217;28;20517;-46
2023/01/23 03:24:33;;;;;;;217.80;27.00;;;;;;;;;;5015204;28;20205;-46
2023/01/23 03:27:01;;;;;;;163.80;24.97;;;;;;;;;;5015307;28;20205;-46
2023/01/23 03:32:21;;;;;;;201.13;25.50;;;;;;;;;;5015302;28;20201;-46
2023/01/23 03:34:48;;;;;;;221.13;26.27;;;;;;;;;;5015015;28;20198;-46
2023/01/23 03:37:18;;;;;;;174.33;26.60;;;;;;;;;;5015098;28;20206;-46
2023/01/23 03:42:33;;;;;;;163.03;24.47;;;;;;;;;;4996240;28;20210;-46
2023/01/23 03:45:02;;;;;;;196.47;25.53;;;;;;;;;;4995082;28;20198;-46
2023/01/23 03:47:33;;;;;;;274.00;26.00;;;;;;;;;;4995212;28;20186;-46
2023/01/23 03:49:59;;;;;;;240.23;25.83;;;;;;;;;;4995012;28;20198;-46
2023/01/23 03:52:30;;;;;;;170.77;23.07;;;;;;;;;;4995570;28;20229;-46
2023/01/23 03:54:57;;;;;;;191.90;24.07;;;;;;;;;;4995932;28;20642;-46
2023/01/23 03:57:25;;;;;;;207.87;25.33;;;;;;;;;;4994945;28;20217;-48
2023/01/23 04:00:16;;;;;;;198.77;25.23;;;;;;;;;;4995136;28;20206;-46
2023/01/23 04:02:52;;;;;;;165.67;23.93;;;;;;;;;;4996240;28;20198;-45
2023/01/23 04:05:19;;;;;;;249.10;25.83;;;;;;;;;;4995001;28;20276;-46
2023/01/23 04:07:46;;;;;;;187.83;24.70;;;;;;;;;;4996017;28;20341;-47
2023/01/23 04:10:14;;;;;;;213.73;26.70;;;;;;;;;;4994617;28;20264;-46
2023/01/23 04:12:46;;;;;;;198.37;27.50;;;;;;;;;;4994605;28;20210;-46
2023/01/23 04:15:13;;;;;;;201.03;25.40;;;;;;;;;;4995461;28;20659;-46
2023/01/23 04:17:41;;;;;;;175.33;25.00;;;;;;;;;;4994965;28;20210;-46
2023/01/23 04:20:09;;;;;;;192.10;25.67;;;;;;;;;;4995720;28;20225;-46
2023/01/23 04:22:37;;;;;;;147.23;24.07;;;;;;;;;;4994711;28;20202;-46
2023/01/23 04:25:05;;;;;;;206.73;24.47;;;;;;;;;;4994536;28;20202;-46
2023/01/23 04:27:32;;;;;;;267.27;26.00;;;;;;;;;;4995190;28;20210;-46
2023/01/23 04:30:00;;;;;;;225.10;25.03;;;;;;;;;;4995396;28;20225;-46
2023/01/23 04:32:27;;;;;;;252.33;26.47;;;;;;;;;;5001263;28;20205;-46
2023/01/23 04:34:55;;;;;;;187.37;24.50;;;;;;;;;;5001195;28;20210;-48
2023/01/23 04:37:24;;;;;;;150.17;23.53;;;;;;;;;;5001007;28;20296;-46
2023/01/23 04:39:51;;;;;;;178.73;24.83;;;;;;;;;;5001055;28;20253;-46
2023/01/23 04:42:19;;;;;;;241.03;24.43;;;;;;;;;;5001032;28;20657;-46
2023/01/23 04:45:08;;;;;;;241.47;24.30;;;;;;;;;;5001735;28;20228;-46
2023/01/23 04:47:35;;;;;;;173.67;24.60;;;;;;;;;;5001962;28;20213;-47
2023/01/23 04:50:08;;;;;;;206.30;24.17;;;;;;;;;;5001333;28;20275;-46
2023/01/23 04:52:35;;;;;;;230.43;25.17;;;;;;;;;;5001000;28;20217;-46
2023/01/23 04:55:03;;;;;;;206.20;26.00;;;;;;;;;;5001091;28;20292;-46
2023/01/23 04:57:30;;;;;;;233.80;24.97;;;;;;;;;;5000902;28;20217;-46
2023/01/23 05:00:09;;;;;;;235.77;25.20;;;;;;;;;;5001651;28;20205;-47
2023/01/23 05:02:37;;;;;;;223.67;25.07;;;;;;;;;;5001696;28;20202;-46
2023/01/23 05:05:05;;;;;;;164.10;25.13;;;;;;;;;;5000774;28;20209;-49
2023/01/23 05:07:32;;;;;;;163.30;24.47;;;;;;;;;;5001535;28;20627;-51
2023/01/23 05:10:05;;;;;;;219.60;26.23;;;;;;;;;;5001144;28;20217;-46
2023/01/23 05:12:33;;;;;;;232.83;24.87;;;;;;;;;;5000789;28;20201;-50
2023/01/23 05:15:01;;;;;;;228.20;26.97;;;;;;;;;;5000855;28;20272;-46
2023/01/23 05:17:29;;;;;;;208.23;26.67;;;;;;;;;;5000841;28;20241;-48
2023/01/23 05:19:56;;;;;;;214.27;28.60;;;;;;;;;;5001670;28;20264;-45
2023/01/23 05:22:23;;;;;;;207.47;25.73;;;;;;;;;;5000584;28;20651;-47
2023/01/23 05:24:52;;;;;;;227.40;23.73;;;;;;;;;;5000798;28;20509;-48
2023/01/23 05:27:19;;;;;;;179.07;24.53;;;;;;;;;;5022791;28;20232;-47
2023/01/23 05:29:48;;;;;;;202.27;25.03;;;;;;;;;;5020988;28;20221;-47
2023/01/23 05:32:21;;;;;;;188.87;25.03;;;;;;;;;;5020560;28;20260;-46
2023/01/23 05:34:56;;;;;;;204.90;24.00;;;;;;;;;;5020194;28;20229;-46
2023/01/23 05:37:29;;;;;;;201.17;24.83;;;;;;;;;;5020345;28;20189;-48
2023/01/23 05:40:02;;;;;;;238.37;26.37;;;;;;;;;;5019889;28;20241;-46
2023/01/23 05:42:49;;;;;;;185.30;24.57;;;;;;;;;;5014439;28;20206;-48
2023/01/23 05:45:39;;;;;;;166.37;24.13;;;;;;;;;;4997858;28;20268;-47
2023/01/23 05:48:12;;;;;;;184.03;24.93;;;;;;;;;;4997119;28;20190;-47
2023/01/23 05:50:40;;;;;;;216.50;27.37;;;;;;;;;;4997144;28;20206;-46
2023/01/23 05:53:07;;;;;;;172.53;24.70;;;;;;;;;;4997066;28;20218;-51
2023/01/23 05:55:39;;;;;;;228.60;26.93;;;;;;;;;;4996969;28;20208;-48
2023/01/23 05:58:08;;;;;;;203.63;25.90;;;;;;;;;;4996810;28;20202;-47
2023/01/23 06:01:02;;;;;;;152.33;24.47;;;;;;;;;;5024946;28;20212;-55
2023/01/23 06:03:47;;;;;;;197.47;25.93;;;;;;;;;;5007530;28;20209;-46
2023/01/23 06:06:35;;;;;;;167.67;24.90;;;;;;;;;;5007531;28;20197;-47
2023/01/23 06:09:02;;;;;;;257.70;27.70;;;;;;;;;;5004426;28;20198;-47
2023/01/23 06:11:31;;;;;;;169.00;25.73;;;;;;;;;;5004676;28;20194;-46
2023/01/23 06:13:58;;;;;;;176.00;23.97;;;;;;;;;;5004754;28;20224;-48
2023/01/23 06:16:25;;;;;;;185.60;25.60;;;;;;;;;;5002692;28;20202;-46
2023/01/23 06:18:52;;;;;;;202.07;26.30;;;;;;;;;;5002275;28;20288;-46
2023/01/23 06:21:20;;;;;;;152.67;25.83;;;;;;;;;;5006323;28;20217;-54
2023/01/23 06:23:47;;;;;;;182.30;27.93;;;;;;;;;;5007308;28;20213;-48
2023/01/23 06:26:15;;;;;;;178.40;26.43;;;;;;;;;;5004565;28;20212;-52
2023/01/23 06:28:43;;;;;;;173.53;26.57;;;;;;;;;;5014812;28;20198;-47
2023/01/23 06:31:10;;;;;;;168.27;26.73;;;;;;;;;;5007605;28;20213;-49
2023/01/23 06:34:07;;;;;;;221.47;26.60;;;;;;;;;;4963995;28;20313;-46
2023/01/23 06:36:41;;;;;;;158.10;23.73;;;;;;;;;;4950302;28;20199;-47
2023/01/23 06:39:12;;;;;;;165.90;24.70;;;;;;;;;;4963832;28;20526;-47
2023/01/23 06:41:41;;;;;;;160.00;25.23;;;;;;;;;;4948166;28;20297;-47
2023/01/23 06:44:15;;;;;;;179.73;26.53;;;;;;;;;;4946431;28;20225;-47
2023/01/23 06:46:42;;;;;;;151.87;25.73;;;;;;;;;;4952703;29;20215;-46
2023/01/23 06:49:09;;;;;;;149.73;24.53;;;;;;;;;;4956517;28;20613;-47
2023/01/23 06:51:37;;;;;;;162.93;25.80;;;;;;;;;;4946304;28;20634;-46
2023/01/23 06:54:06;;;;;;;149.70;27.07;;;;;;;;;;4943084;28;20740;-46
2023/01/23 06:56:34;;;;;;;193.53;28.80;;;;;;;;;;4951083;28;20237;-49
2023/01/23 06:59:05;;;;;;;168.30;25.33;;;;;;;;;;4955822;28;20231;-51
2023/01/23 07:01:33;;;;;;;144.47;23.13;;;;;;;;;;4954889;28;20282;-47
2023/01/23 07:04:20;;;;;;;166.03;25.23;;;;;;;;;;4942511;28;20309;-48
2023/01/23 07:06:50;;;;;;;147.07;25.37;;;;;;;;;;4955221;28;20239;-47
2023/01/23 07:09:18;;;;;;;154.03;24.20;;;;;;;;;;4955717;29;20242;-46
2023/01/23 07:11:58;;;;;;;163.73;27.33;;;;;;;;;;5014796;28;20244;-46
2023/01/23 07:14:27;;;;;;;178.73;31.53;;;;;;;;;;5031320;28;20263;-46
2023/01/23 07:16:55;;;;;;;159.37;24.77;;;;;;;;;;5014387;28;20509;-46
2023/01/23 07:19:24;;;;;;;159.67;25.37;;;;;;;;;;5014837;28;20233;-45
2023/01/23 07:21:52;;;;;;;177.50;28.57;;;;;;;;;;5012374;28;20229;-46
2023/01/23 07:24:19;;;;;;;184.47;29.30;;;;;;;;;;5034663;28;20259;-46
2023/01/23 07:26:46;;;;;;;173.07;27.43;;;;;;;;;;5035148;28;20662;-47
2023/01/23 07:29:13;;;;;;;171.37;26.17;;;;;;;;;;5025139;28;20232;-46
2023/01/23 07:31:41;;;;;;;159.47;26.47;;;;;;;;;;5015233;28;20236;-49
2023/01/23 07:34:08;;;;;;;155.20;28.13;;;;;;;;;;5015536;28;20238;-48
2023/01/23 07:36:35;;;;;;;154.40;26.97;;;;;;;;;;5014629;28;20236;-46
2023/01/23 07:39:02;;;;;;;181.80;27.67;;;;;;;;;;5015483;28;20240;-47
2023/01/23 07:41:29;;;;;;;170.33;27.13;;;;;;;;;;5015182;28;20561;-49
2023/01/23 07:44:00;;;;;;;154.83;26.10;;;;;;;;;;5019952;28;20538;-46
2023/01/23 07:46:28;;;;;;;175.17;27.83;;;;;;;;;;5034630;28;20235;-47
2023/01/23 07:48:55;;;;;;;167.13;25.77;;;;;;;;;;5034605;28;20618;-44
2023/01/23 07:51:22;;;;;;;159.03;28.10;;;;;;;;;;5026665;28;20296;-47
2023/01/23 07:53:50;;;;;;;171.73;28.23;;;;;;;;;;5019923;28;20586;-48
2023/01/23 07:56:17;;;;;;;184.90;27.73;;;;;;;;;;5027546;28;20661;-48
2023/01/23 07:58:48;;;;;;;189.00;30.13;;;;;;;;;;5034666;28;20244;-47
2023/01/23 08:01:16;;;;;;;171.33;27.10;;;;;;;;;;5034648;28;20232;-51
2023/01/23 08:03:43;;;;;;;170.97;30.70;;;;;;;;;;5034252;28;20233;-49
2023/01/23 08:06:10;;;;;;;172.70;29.37;;;;;;;;;;5018617;28;20757;-46
2023/01/23 08:08:37;;;;;;;179.63;30.13;;;;;;;;;;4994848;28;20226;-44
2023/01/23 08:11:06;;;;;;;174.43;29.27;;;;;;;;;;4995275;28;20229;-44
2023/01/23 08:13:33;;;;;;;184.93;31.57;;;;;;;;;;4994749;28;20230;-44
2023/01/23 08:16:00;;;;;;;170.57;30.30;;;;;;;;;;4995051;28;20575;-46
2023/01/23 08:18:29;;;;;;;191.20;32.10;;;;;;;;;;4995027;28;20295;-44
2023/01/23 08:20:58;;;;;;;172.33;32.80;;;;;;;;;;4994922;28;20300;-44
2023/01/23 08:23:26;;;;;;;178.47;31.57;;;;;;;;;;4995595;28;20210;-44
2023/01/23 08:25:55;;;;;;;166.80;31.20;;;;;;;;;;4995425;28;20260;-44
2023/01/23 08:28:23;;;;;;;191.83;31.97;;;;;;;;;;4994265;28;20624;-46
2023/01/23 08:30:51;;;;;;;186.73;32.30;;;;;;;;;;4994432;28;20206;-44
2023/01/23 08:33:18;;;;;;;176.60;32.27;;;;;;;;;;4994594;28;20619;-44
2023/01/23 08:35:49;;;;;;;181.47;32.00;;;;;;;;;;4994933;28;20537;-44
2023/01/23 08:38:17;;;;;;;183.83;31.17;;;;;;;;;;4995835;28;20252;-44
2023/01/23 08:40:46;;;;;;;195.10;31.70;;;;;;;;;;4995676;28;20234;-45
2023/01/23 08:43:14;;;;;;;178.73;31.97;;;;;;;;;;4995176;28;20202;-44
2023/01/23 08:45:47;;;;;;;190.27;32.47;;;;;;;;;;4995876;28;20506;-44
2023/01/23 08:48:15;;;;;;;181.27;31.50;;;;;;;;;;4997941;28;20205;-48
2023/01/23 08:50:42;;;;;;;176.87;32.20;;;;;;;;;;5003461;28;20686;-44
2023/01/23 08:53:09;;;;;;;166.13;31.23;;;;;;;;;;4995123;28;20613;-44
2023/01/23 08:55:37;;;;;;;169.57;30.80;;;;;;;;;;4995241;28;20292;-44
2023/01/23 08:58:06;;;;;;;192.47;32.47;;;;;;;;;;4995047;28;20601;-44
2023/01/23 09:00:34;;;;;;;172.23;32.53;;;;;;;;;;4995037;28;20229;-47
2023/01/23 09:03:02;;;;;;;172.03;33.77;;;;;;;;;;5015131;28;20222;-44
2023/01/23 09:05:30;;;;;;;189.77;35.10;;;;;;;;;;5014640;28;20646;-44
2023/01/23 09:07:58;;;;;;;181.33;31.47;;;;;;;;;;5014011;28;20205;-44
2023/01/23 09:10:28;;;;;;;183.07;33.90;;;;;;;;;;5015612;28;20200;-44
2023/01/23 09:12:56;;;;;;;182.03;32.57;;;;;;;;;;5014819;28;20208;-45
2023/01/23 09:15:23;;;;;;;174.20;32.47;;;;;;;;;;5014700;28;20221;-45
2023/01/23 09:17:50;;;;;;;185.33;34.77;;;;;;;;;;5016378;28;20209;-44
2023/01/23 09:20:18;;;;;;;204.23;33.17;;;;;;;;;;5018485;28;20206;-44
2023/01/23 09:22:45;;;;;;;199.67;37.47;;;;;;;;;;5018128;28;20209;-45
2023/01/23 09:25:13;;;;;;;225.13;38.13;;;;;;;;;;5018133;28;20669;-44
2023/01/23 09:27:40;;;;;;;224.30;39.40;;;;;;;;;;5018047;28;20205;-45
2023/01/23 09:30:08;;;;;;;195.00;35.37;;;;;;;;;;5017972;28;20646;-44
2023/01/23 09:32:35;;;;;;;203.57;37.47;;;;;;;;;;5018265;28;20197;-46
2023/01/23 09:35:03;;;;;;;193.07;36.17;;;;;;;;;;5018128;28;20236;-45
2023/01/23 09:40:18;;;;;;;166.03;31.50;;;;;;;;;;4999610;28;20237;-46
2023/01/23 09:42:46;;;;;;;166.00;33.50;;;;;;;;;;5013588;28;20209;-44
2023/01/23 09:45:18;;;;;;;196.63;34.47;;;;;;;;;;4998167;28;20218;-44
2023/01/23 09:48:01;;;;;;;182.00;34.60;;;;;;;;;;5013450;28;20210;-44
2023/01/23 09:50:32;;;;;;;187.67;32.00;;;;;;;;;;4998030;28;20554;-44
2023/01/23 09:53:14;;;;;;;174.87;32.17;;;;;;;;;;5014035;28;20201;-44
2023/01/23 09:55:47;;;;;;;169.83;32.40;;;;;;;;;;4998283;28;20280;-44
2023/01/23 09:58:21;;;;;;;175.00;33.13;;;;;;;;;;5013150;28;20202;-44
2023/01/23 10:00:50;;;;;;;172.33;34.93;;;;;;;;;;5013684;28;20206;-44
2023/01/23 10:03:17;;;;;;;175.20;33.70;;;;;;;;;;4998077;28;20202;-44
2023/01/23 10:05:59;;;;;;;178.77;33.20;;;;;;;;;;4998137;28;20593;-45
2023/01/23 10:08:32;;;;;;;197.00;34.47;;;;;;;;;;4997915;28;20276;-44
2023/01/23 10:11:03;;;;;;;183.27;36.00;;;;;;;;;;4998044;28;20191;-45
2023/01/23 10:14:01;;;;;;;186.77;35.37;;;;;;;;;;4997926;28;20209;-44
2023/01/23 10:16:34;;;;;;;181.37;35.17;;;;;;;;;;5013046;28;20623;-44
2023/01/23 10:19:31;;;;;;;186.83;36.67;;;;;;;;;;4997372;28;20289;-44
2023/01/23 10:22:35;;;;;;;204.97;41.60;;;;;;;;;;4997752;28;20202;-44
2023/01/23 10:25:14;;;;;;;169.97;34.07;;;;;;;;;;4995052;28;20216;-44
2023/01/23 10:27:44;;;;;;;187.50;35.40;;;;;;;;;;5025972;28;20189;-45
2023/01/23 10:30:22;;;;;;;180.10;33.73;;;;;;;;;;5016856;28;20205;-44
2023/01/23 10:32:54;;;;;;;166.17;32.27;;;;;;;;;;5016882;28;20197;-45
2023/01/23 10:35:36;;;;;;;176.67;33.93;;;;;;;;;;5012374;28;20226;-45
2023/01/23 10:38:06;;;;;;;176.73;33.63;;;;;;;;;;5008389;28;20213;-46
2023/01/23 10:43:20;;;;;;;166.27;32.67;;;;;;;;;;5017121;28;20201;-44
2023/01/23 10:45:48;;;;;;;185.03;33.43;;;;;;;;;;5016631;28;20694;-45
2023/01/23 10:48:30;;;;;;;189.40;33.30;;;;;;;;;;5017086;28;20651;-45
2023/01/23 10:51:02;;;;;;;170.83;32.67;;;;;;;;;;5017278;28;20600;-44
2023/01/23 10:53:29;;;;;;;183.00;32.80;;;;;;;;;;5016604;28;20205;-44
2023/01/23 10:55:58;;;;;;;176.13;31.63;;;;;;;;;;5016685;28;20225;-44
2023/01/23 10:58:39;;;;;;;174.57;32.83;;;;;;;;;;5016313;28;20267;-46
2023/01/23 11:01:25;;;;;;;196.90;33.10;;;;;;;;;;5015893;28;20217;-44
2023/01/23 11:03:53;;;;;;;178.03;33.43;;;;;;;;;;5016700;28;20190;-44
2023/01/23 11:06:24;;;;;;;192.00;34.83;;;;;;;;;;5016813;28;20237;-45
2023/01/23 11:08:59;;;;;;;174.40;34.27;;;;;;;;;;5016176;28;20194;-45
2023/01/23 11:11:31;;;;;;;180.57;32.23;;;;;;;;;;5016414;28;20209;-44
2023/01/23 11:14:10;;;;;;;180.70;33.53;;;;;;;;;;5016750;28;20201;-44
2023/01/23 11:16:37;;;;;;;188.37;32.73;;;;;;;;;;5015996;28;20627;-45
2023/01/23 11:19:07;;;;;;;182.70;32.77;;;;;;;;;;5015417;28;20283;-46
2023/01/23 11:21:50;;;;;;;186.73;30.97;;;;;;;;;;5014895;28;20206;-46
2023/01/23 11:24:19;;;;;;;190.70;32.33;;;;;;;;;;5015304;28;20181;-44
2023/01/23 11:27:01;;;;;;;192.43;32.13;;;;;;;;;;5015645;28;20190;-44
2023/01/23 11:29:30;;;;;;;214.57;35.90;;;;;;;;;;5015886;28;20209;-45
2023/01/23 11:32:04;;;;;;;197.77;34.33;;;;;;;;;;5014887;28;21202;-44
2023/01/23 11:34:41;;;;;;;202.33;34.10;;;;;;;;;;5025603;28;20204;-48
2023/01/23 11:37:22;;;;;;;200.43;35.43;;;;;;;;;;5008752;28;20692;-45
2023/01/23 11:40:00;;;;;;;167.60;34.30;;;;;;;;;;5009825;28;20273;-45
2023/01/23 11:42:28;;;;;;;193.93;33.33;;;;;;;;;;5013378;28;20255;-50
2023/01/23 11:44:58;;;;;;;205.97;35.47;;;;;;;;;;5006430;28;20226;-46
2023/01/23 11:47:40;;;;;;;177.13;32.77;;;;;;;;;;5023993;28;20226;-46
2023/01/23 11:50:13;;;;;;;161.87;33.00;;;;;;;;;;5012620;28;20256;-46
2023/01/23 11:52:52;;;;;;;224.63;35.97;;;;;;;;;;5006595;28;20229;-46
2023/01/23 11:55:28;;;;;;;203.17;36.27;;;;;;;;;;5030307;28;20291;-44
2023/01/23 11:58:28;;;;;;;183.23;34.27;;;;;;;;;;5015039;28;20236;-45
2023/01/23 12:01:14;;;;;;;174.63;33.07;;;;;;;;;;5015269;28;20575;-46
2023/01/23 12:04:08;;;;;;;183.23;34.20;;;;;;;;;;5014684;28;20312;-46
2023/01/23 12:06:39;;;;;;;212.35;49.67;;;;;;;;;;5018674;28;20450;-49
2023/01/23 12:09:11;;;;;;;196.83;38.17;;;;;;;;;;5020816;28;20225;-53
2023/01/23 12:11:47;;;;;;;166.27;33.10;;;;;;;;;;5000291;28;20226;-49
2023/01/23 12:14:26;;;;;;;175.53;33.73;;;;;;;;;;5019393;28;20698;-48
2023/01/23 12:17:01;;;;;;;170.83;33.10;;;;;;;;;;5024129;28;20225;-50
2023/01/23 12:19:51;;;;;;;172.53;32.90;;;;;;;;;;5013726;28;20232;-48
2023/01/23 12:22:46;;;;;;;168.53;33.70;;;;;;;;;;5010923;28;20233;-49
2023/01/23 12:25:31;;;;;;;166.17;30.87;;;;;;;;;;5014227;28;20233;-49
2023/01/23 12:28:11;;;;;;;163.50;32.00;;;;;;;;;;5014083;28;20224;-49
2023/01/23 12:30:41;;;;;;;150.43;32.40;;;;;;;;;;5013990;28;20220;-49
2023/01/23 12:33:42;;;;;;;178.20;34.87;;;;;;;;;;5014063;28;20228;-48
2023/01/23 12:36:16;;;;;;;165.13;33.00;;;;;;;;;;5014052;28;20241;-50
2023/01/23 12:39:05;;;;;;;162.27;32.53;;;;;;;;;;5029667;28;20299;-53
2023/01/23 12:41:40;;;;;;;148.10;32.23;;;;;;;;;;5028995;28;20241;-52
2023/01/23 12:44:39;;;;;;;159.37;30.53;;;;;;;;;;5014362;28;20243;-51
2023/01/23 12:47:12;;;;;;;161.80;32.50;;;;;;;;;;5014632;28;20225;-49
2023/01/23 12:49:48;;;;;;;160.47;32.40;;;;;;;;;;5014067;28;20228;-59
2023/01/23 12:52:57;;;;;;;167.60;33.67;;;;;;;;;;5016073;28;20299;-51
2023/01/23 12:55:29;;;;;;;166.30;33.93;;;;;;;;;;4995307;28;20242;-47
2023/01/23 12:57:57;;;;;;;179.10;34.23;;;;;;;;;;4999916;28;20737;-48
2023/01/23 13:00:41;;;;;;;179.97;35.90;;;;;;;;;;5015758;28;20221;-48
2023/01/23 13:03:45;;;;;;;171.27;34.53;;;;;;;;;;5011668;28;20312;-49
2023/01/23 13:06:35;;;;;;;196.83;35.87;;;;;;;;;;5017869;28;20225;-47
2023/01/23 13:09:20;;;;;;;170.73;36.17;;;;;;;;;;5018139;28;20237;-47
2023/01/23 13:12:06;;;;;;;163.37;34.20;;;;;;;;;;5017026;28;20228;-53
2023/01/23 13:14:40;;;;;;;175.13;33.17;;;;;;;;;;5017760;28;20306;-50
2023/01/23 13:17:28;;;;;;;195.27;36.93;;;;;;;;;;5018038;28;20244;-48
2023/01/23 13:23:30;;;;;;;175.00;34.67;;;;;;;;;;5017295;28;20244;-51
2023/01/23 13:26:18;;;;;;;193.47;37.63;;;;;;;;;;5016237;28;20264;-48
2023/01/23 13:28:56;;;;;;;173.33;34.57;;;;;;;;;;5017048;28;20713;-48
2023/01/23 13:31:45;;;;;;;189.77;38.43;;;;;;;;;;5017772;28;20233;-53
2023/01/23 13:34:16;;;;;;;175.87;36.43;;;;;;;;;;5032079;28;20225;-50
2023/01/23 13:36:45;;;;;;;216.90;39.07;;;;;;;;;;5016859;28;20241;-53
2023/01/23 13:39:15;;;;;;;189.50;38.57;;;;;;;;;;5031743;28;20282;-51
2023/01/23 13:41:44;;;;;;;199.30;39.23;;;;;;;;;;5017298;28;20248;-50
2023/01/23 13:44:28;;;;;;;198.93;40.23;;;;;;;;;;5016041;28;20291;-50
2023/01/23 13:49:49;;;;;;;200.27;37.93;;;;;;;;;;5017419;28;20642;-57
2023/01/23 13:50:19;;;;;;;204.57;36.93;;;;;;;;;;4994964;28;20234;-49
2023/01/23 13:56:39;;;;;;;197.80;37.50;;;;;;;;;;4866184;29;20237;-51
2023/01/23 13:59:37;;;;;;;189.67;36.63;;;;;;;;;;4802108;29;20256;-51
2023/01/23 14:05:34;;;;;;;208.10;37.40;;;;;;;;;;4696415;30;20286;-51
2023/01/23 14:08:18;;;;;;;203.63;38.93;;;;;;;;;;4683900;30;20268;-50
2023/01/23 14:11:01;;;;;;;195.33;38.30;;;;;;;;;;4700332;30;20241;-53
2023/01/23 14:17:14;;;;;;;182.17;37.27;;;;;;;;;;4689435;30;20256;-51
2023/01/23 14:20:16;;;;;;;173.43;38.30;;;;;;;;;;4719413;30;20251;-56
2023/01/23 14:22:45;;;;;;;184.33;38.47;;;;;;;;;;4728482;30;20248;-54
2023/01/23 14:25:16;;;;;;;176.30;37.70;;;;;;;;;;4755511;30;20242;-50
2023/01/23 14:27:43;;;;;;;181.20;37.57;;;;;;;;;;4755304;30;20669;-51
2023/01/23 14:30:25;;;;;;;188.83;38.03;;;;;;;;;;4800505;29;20227;-50
2023/01/23 14:32:54;;;;;;;189.07;37.27;;;;;;;;;;4881600;29;20235;-50
2023/01/23 14:35:29;;;;;;;184.23;37.63;;;;;;;;;;4938309;28;20231;-56
2023/01/23 14:38:04;;;;;;;169.07;36.83;;;;;;;;;;4993840;28;20294;-58
2023/01/23 14:40:31;;;;;;;178.60;38.10;;;;;;;;;;5017551;28;20237;-50
2023/01/23 14:43:23;;;;;;;172.73;35.97;;;;;;;;;;5015637;28;20224;-56
2023/01/23 14:46:05;;;;;;;173.97;35.27;;;;;;;;;;5016203;28;20554;-50
2023/01/23 14:48:36;;;;;;;194.53;37.77;;;;;;;;;;5031732;28;20252;-50
2023/01/23 14:51:09;;;;;;;174.30;36.03;;;;;;;;;;5030907;28;20320;-49
2023/01/23 14:53:40;;;;;;;178.50;37.73;;;;;;;;;;5031577;28;20252;-52
2023/01/23 14:56:09;;;;;;;199.93;36.83;;;;;;;;;;5034392;28;20245;-52
2023/01/23 14:58:36;;;;;;;205.83;39.90;;;;;;;;;;5033232;28;20224;-53
2023/01/23 15:01:04;;;;;;;179.93;38.00;;;;;;;;;;5013784;28;20229;-53
2023/01/23 15:03:40;;;;;;;174.03;37.00;;;;;;;;;;5013373;28;20213;-53